sensor_id;sensor_type;location;lat;lon;timestamp;pressure;altitude;pressure_sealevel;temperature;humidity
56928;BME280;60850;52.502;13.426;2024-03-06T00:00:07;101590.25;;;2.74;100.00
56928;BME280;60850;52.502;13.426;2024-03-06T00:02:35;101596.34;;;2.72;100.00
56928;BME280;60850;52.502;13.426;2024-03-06T00:05:02;101600.63;;;2.65;100.00
56928;BME280;60850;52.502;13.426;2024-03-06T00:07:31;101600.63;;;2.67;100.00
56928;BME280;60850;52.502;13.426;2024-03-06T00:09:58;101602.47;;;2.69;100.00
56928;BME280;60850;52.502;13.426;2024-03-06T00:12:25;101602.50;;;2.72;100.00
56928;BME280;60850;52.502;13.426;2024-03-06T00:14:52;101607.72;;;2.69;100.00
56928;BME280;60850;52.502;13.426;2024-03-06T00:17:18;101608.69;;;2.74;100.00
56928;BME280;60850;52.502;13.426;2024-03-06T00:19:45;101615.63;;;2.69;100.00
56928;BME280;60850;52.502;13.426;2024-03-06T00:22:12;101618.38;;;2.75;100.00
56928;BME280;60850;52.502;13.426;2024-03-06T00:24:40;101616.69;;;2.79;100.00
56928;BME280;60850;52.502;13.426;2024-03-06T00:27:08;101617.66;;;2.83;100.00
56928;BME280;60850;52.502;13.426;2024-03-06T00:29:36;101625.34;;;2.73;100.00
56928;BME280;60850;52.502;13.426;2024-03-06T00:32:04;101629.66;;;2.68;100.00
56928;BME280;60850;52.502;13.426;2024-03-06T00:34:31;101634.06;;;2.69;100.00
56928;BME280;60850;52.502;13.426;2024-03-06T00:36:58;101637.47;;;2.65;100.00
56928;BME280;60850;52.502;13.426;2024-03-06T00:39:25;101642.72;;;2.64;100.00
56928;BME280;60850;52.502;13.426;2024-03-06T00:41:54;101641.81;;;2.63;100.00
56928;BME280;60850;52.502;13.426;2024-03-06T00:44:20;101648.09;;;2.68;100.00
56928;BME280;60850;52.502;13.426;2024-03-06T00:46:48;101649.00;;;2.70;100.00
56928;BME280;60850;52.502;13.426;2024-03-06T00:49:14;101651.59;;;2.69;100.00
56928;BME280;60850;52.502;13.426;2024-03-06T00:51:42;101658.47;;;2.62;100.00
56928;BME280;60850;52.502;13.426;2024-03-06T00:54:10;101660.22;;;2.62;100.00
56928;BME280;60850;52.502;13.426;2024-03-06T00:56:37;101661.19;;;2.67;100.00
56928;BME280;60850;52.502;13.426;2024-03-06T00:59:06;101662.91;;;2.65;100.00
56928;BME280;60850;52.502;13.426;2024-03-06T01:01:33;101660.97;;;2.56;100.00
56928;BME280;60850;52.502;13.426;2024-03-06T01:04:00;101665.56;;;2.66;100.00
56928;BME280;60850;52.502;13.426;2024-03-06T01:06:27;101668.94;;;2.59;100.00
56928;BME280;60850;52.502;13.426;2024-03-06T01:08:55;101661.91;;;2.60;100.00
56928;BME280;60850;52.502;13.426;2024-03-06T01:11:22;101667.03;;;2.52;100.00
56928;BME280;60850;52.502;13.426;2024-03-06T01:13:49;101665.25;;;2.51;100.00
56928;BME280;60850;52.502;13.426;2024-03-06T01:16:18;101670.53;;;2.53;100.00
56928;BME280;60850;52.502;13.426;2024-03-06T01:18:45;101671.38;;;2.50;100.00
56928;BME280;60850;52.502;13.426;2024-03-06T01:21:13;101671.50;;;2.56;100.00
56928;BME280;60850;52.502;13.426;2024-03-06T01:23:40;101675.91;;;2.56;100.00
56928;BME280;60850;52.502;13.426;2024-03-06T01:26:08;101676.91;;;2.62;100.00
56928;BME280;60850;52.502;13.426;2024-03-06T01:28:34;101672.25;;;2.49;100.00
56928;BME280;60850;52.502;13.426;2024-03-06T01:31:02;101677.50;;;2.49;100.00
56928;BME280;60850;52.502;13.426;2024-03-06T01:33:31;101681.88;;;2.48;100.00
56928;BME280;60850;52.502;13.426;2024-03-06T01:35:58;101683.56;;;2.46;100.00
56928;BME280;60850;52.502;13.426;2024-03-06T01:38:25;101674.72;;;2.43;100.00
56928;BME280;60850;52.502;13.426;2024-03-06T01:40:52;101685.25;;;2.43;100.00
56928;BME280;60850;52.502;13.426;2024-03-06T01:43:20;101685.97;;;2.36;100.00
56928;BME280;60850;52.502;13.426;2024-03-06T01:45:48;101685.84;;;2.30;100.00
56928;BME280;60850;52.502;13.426;2024-03-06T01:48:16;101680.69;;;2.34;100.00
56928;BME280;60850;52.502;13.426;2024-03-06T01:50:44;101686.00;;;2.37;100.00
56928;BME280;60850;52.502;13.426;2024-03-06T01:53:13;101692.28;;;2.44;100.00
56928;BME280;60850;52.502;13.426;2024-03-06T01:55:41;101684.25;;;2.38;100.00
56928;BME280;60850;52.502;13.426;2024-03-06T01:58:08;101690.50;;;2.41;100.00
56928;BME280;60850;52.502;13.426;2024-03-06T02:00:36;101695.50;;;2.31;100.00
56928;BME280;60850;52.502;13.426;2024-03-06T02:03:04;101692.69;;;2.22;100.00
56928;BME280;60850;52.502;13.426;2024-03-06T02:05:32;101697.09;;;2.24;100.00
56928;BME280;60850;52.502;13.426;2024-03-06T02:08:00;101695.31;;;2.22;100.00
56928;BME280;60850;52.502;13.426;2024-03-06T02:10:28;101686.69;;;2.29;100.00
56928;BME280;60850;52.502;13.426;2024-03-06T02:12:55;101690.19;;;2.28;100.00
56928;BME280;60850;52.502;13.426;2024-03-06T02:15:23;101682.22;;;2.25;100.00
56928;BME280;60850;52.502;13.426;2024-03-06T02:17:50;101694.44;;;2.23;100.00
56928;BME280;60850;52.502;13.426;2024-03-06T02:20:22;101683.00;;;2.20;100.00
56928;BME280;60850;52.502;13.426;2024-03-06T02:22:50;101685.50;;;2.14;100.00
56928;BME280;60850;52.502;13.426;2024-03-06T02:25:18;101688.25;;;2.19;100.00
56928;BME280;60850;52.502;13.426;2024-03-06T02:27:45;101685.66;;;2.20;100.00
56928;BME280;60850;52.502;13.426;2024-03-06T02:30:14;101694.53;;;2.26;100.00
56928;BME280;60850;52.502;13.426;2024-03-06T02:32:41;101701.59;;;2.28;100.00
56928;BME280;60850;52.502;13.426;2024-03-06T02:35:09;101703.78;;;2.10;100.00
56928;BME280;60850;52.502;13.426;2024-03-06T02:37:37;101704.66;;;2.09;100.00
56928;BME280;60850;52.502;13.426;2024-03-06T02:40:06;101696.16;;;2.20;100.00
56928;BME280;60850;52.502;13.426;2024-03-06T02:42:35;101707.44;;;2.15;100.00
56928;BME280;60850;52.502;13.426;2024-03-06T02:45:05;101709.78;;;2.04;100.00
56928;BME280;60850;52.502;13.426;2024-03-06T02:47:33;101713.44;;;2.09;100.00
56928;BME280;60850;52.502;13.426;2024-03-06T02:50:00;101711.53;;;2.04;100.00
56928;BME280;60850;52.502;13.426;2024-03-06T02:52:27;101710.66;;;2.03;100.00
56928;BME280;60850;52.502;13.426;2024-03-06T02:54:56;101712.38;;;2.01;100.00
56928;BME280;60850;52.502;13.426;2024-03-06T02:57:23;101716.06;;;2.09;100.00
56928;BME280;60850;52.502;13.426;2024-03-06T02:59:50;101711.44;;;1.99;100.00
56928;BME280;60850;52.502;13.426;2024-03-06T03:02:17;101717.50;;;1.97;100.00
56928;BME280;60850;52.502;13.426;2024-03-06T03:04:44;101708.91;;;2.04;100.00
56928;BME280;60850;52.502;13.426;2024-03-06T03:07:11;101722.03;;;2.02;100.00
56928;BME280;60850;52.502;13.426;2024-03-06T03:09:38;101717.47;;;1.95;100.00
56928;BME280;60850;52.502;13.426;2024-03-06T03:12:06;101720.09;;;1.95;100.00
56928;BME280;60850;52.502;13.426;2024-03-06T03:14:33;101724.31;;;1.88;100.00
56928;BME280;60850;52.502;13.426;2024-03-06T03:17:00;101725.50;;;2.01;100.00
56928;BME280;60850;52.502;13.426;2024-03-06T03:19:28;101728.09;;;1.98;100.00
56928;BME280;60850;52.502;13.426;2024-03-06T03:21:55;101735.16;;;2.01;100.00
56928;BME280;60850;52.502;13.426;2024-03-06T03:24:22;101736.91;;;2.02;100.00
56928;BME280;60850;52.502;13.426;2024-03-06T03:26:51;101743.97;;;2.04;100.00
56928;BME280;60850;52.502;13.426;2024-03-06T03:29:19;101745.09;;;2.12;100.00
56928;BME280;60850;52.502;13.426;2024-03-06T03:31:47;101747.59;;;2.08;100.00
56928;BME280;60850;52.502;13.426;2024-03-06T03:34:14;101745.72;;;2.04;100.00
56928;BME280;60850;52.502;13.426;2024-03-06T03:36:42;101751.16;;;2.11;100.00
56928;BME280;60850;52.502;13.426;2024-03-06T03:39:10;101749.25;;;2.04;100.00
56928;BME280;60850;52.502;13.426;2024-03-06T03:41:45;101751.66;;;1.95;100.00
56928;BME280;60850;52.502;13.426;2024-03-06T03:44:13;101757.00;;;1.98;100.00
56928;BME280;60850;52.502;13.426;2024-03-06T03:46:41;101757.00;;;1.98;100.00
56928;BME280;60850;52.502;13.426;2024-03-06T03:49:09;101747.06;;;1.86;100.00
56928;BME280;60850;52.502;13.426;2024-03-06T03:51:36;101754.97;;;1.88;100.00
56928;BME280;60850;52.502;13.426;2024-03-06T03:54:03;101758.47;;;1.87;100.00
56928;BME280;60850;52.502;13.426;2024-03-06T03:56:30;101760.09;;;1.82;100.00
56928;BME280;60850;52.502;13.426;2024-03-06T03:58:58;101757.53;;;1.83;100.00
56928;BME280;60850;52.502;13.426;2024-03-06T04:01:25;101764.47;;;1.81;100.00
56928;BME280;60850;52.502;13.426;2024-03-06T04:03:53;101759.22;;;1.83;100.00
56928;BME280;60850;52.502;13.426;2024-03-06T04:06:20;101760.19;;;1.85;100.00
56928;BME280;60850;52.502;13.426;2024-03-06T04:08:47;101759.38;;;1.89;100.00
56928;BME280;60850;52.502;13.426;2024-03-06T04:11:15;101758.41;;;1.84;100.00
56928;BME280;60850;52.502;13.426;2024-03-06T04:13:42;101760.97;;;1.82;100.00
56928;BME280;60850;52.502;13.426;2024-03-06T04:16:09;101763.59;;;1.82;100.00
56928;BME280;60850;52.502;13.426;2024-03-06T04:18:36;101762.72;;;1.82;100.00
56928;BME280;60850;52.502;13.426;2024-03-06T04:21:05;101765.44;;;1.85;100.00
56928;BME280;60850;52.502;13.426;2024-03-06T04:23:33;101764.59;;;1.86;100.00
56928;BME280;60850;52.502;13.426;2024-03-06T04:26:00;101775.69;;;1.76;100.00
56928;BME280;60850;52.502;13.426;2024-03-06T04:28:27;101769.53;;;1.74;100.00
56928;BME280;60850;52.502;13.426;2024-03-06T04:30:54;101773.91;;;1.75;100.00
56928;BME280;60850;52.502;13.426;2024-03-06T04:33:22;101763.66;;;1.84;100.00
56928;BME280;60850;52.502;13.426;2024-03-06T04:35:48;101771.50;;;1.82;100.00
56928;BME280;60850;52.502;13.426;2024-03-06T04:38:17;101771.41;;;1.79;100.00
56928;BME280;60850;52.502;13.426;2024-03-06T04:40:44;101778.22;;;1.71;100.00
56928;BME280;60850;52.502;13.426;2024-03-06T04:43:11;101780.72;;;1.67;100.00
56928;BME280;60850;52.502;13.426;2024-03-06T04:45:38;101780.72;;;1.67;100.00
56928;BME280;60850;52.502;13.426;2024-03-06T04:48:06;101785.25;;;1.72;100.00
56928;BME280;60850;52.502;13.426;2024-03-06T04:50:34;101784.28;;;1.69;100.00
56928;BME280;60850;52.502;13.426;2024-03-06T04:53:01;101783.31;;;1.65;100.00
56928;BME280;60850;52.502;13.426;2024-03-06T04:55:29;101786.88;;;1.67;100.00
56928;BME280;60850;52.502;13.426;2024-03-06T04:57:56;101792.13;;;1.67;100.00
56928;BME280;60850;52.502;13.426;2024-03-06T05:00:24;101794.66;;;1.62;100.00
56928;BME280;60850;52.502;13.426;2024-03-06T05:02:51;101798.19;;;1.64;100.00
56928;BME280;60850;52.502;13.426;2024-03-06T05:05:18;101799.91;;;1.62;100.00
56928;BME280;60850;52.502;13.426;2024-03-06T05:07:45;101803.28;;;1.58;100.00
56928;BME280;60850;52.502;13.426;2024-03-06T05:10:12;101805.91;;;1.58;100.00
56928;BME280;60850;52.502;13.426;2024-03-06T05:12:40;101815.69;;;1.62;100.00
56928;BME280;60850;52.502;13.426;2024-03-06T05:15:08;101808.72;;;1.64;100.00
56928;BME280;60850;52.502;13.426;2024-03-06T05:17:35;101811.38;;;1.66;100.00
56928;BME280;60850;52.502;13.426;2024-03-06T05:20:03;101814.03;;;1.68;100.00
56928;BME280;60850;52.502;13.426;2024-03-06T05:22:30;101817.69;;;1.73;100.00
56928;BME280;60850;52.502;13.426;2024-03-06T05:24:57;101820.94;;;1.62;100.00
56928;BME280;60850;52.502;13.426;2024-03-06T05:27:24;101817.44;;;1.63;100.00
56928;BME280;60850;52.502;13.426;2024-03-06T05:29:53;101822.53;;;1.57;100.00
56928;BME280;60850;52.502;13.426;2024-03-06T05:32:20;101829.75;;;1.64;100.00
56928;BME280;60850;52.502;13.426;2024-03-06T05:34:47;101827.88;;;1.60;100.00
56928;BME280;60850;52.502;13.426;2024-03-06T05:37:13;101830.50;;;1.60;100.00
56928;BME280;60850;52.502;13.426;2024-03-06T05:39:40;101842.72;;;1.58;100.00
56928;BME280;60850;52.502;13.426;2024-03-06T05:42:08;101844.66;;;1.65;100.00
56928;BME280;60850;52.502;13.426;2024-03-06T05:44:35;101843.81;;;1.67;100.00
56928;BME280;60850;52.502;13.426;2024-03-06T05:47:03;101847.03;;;1.56;100.00
56928;BME280;60850;52.502;13.426;2024-03-06T05:49:32;101850.84;;;1.68;100.00
56928;BME280;60850;52.502;13.426;2024-03-06T05:52:00;101860.34;;;1.62;100.00
56928;BME280;60850;52.502;13.426;2024-03-06T05:54:28;101853.25;;;1.60;100.00
56928;BME280;60850;52.502;13.426;2024-03-06T05:56:59;101861.19;;;1.61;100.00
56928;BME280;60850;52.502;13.426;2024-03-06T05:59:26;101869.38;;;1.72;100.00
56928;BME280;60850;52.502;13.426;2024-03-06T06:01:54;101866.53;;;1.64;100.00
56928;BME280;60850;52.502;13.426;2024-03-06T06:04:23;101872.38;;;1.86;100.00
56928;BME280;60850;52.502;13.426;2024-03-06T06:06:51;101875.97;;;1.89;100.00
56928;BME280;60850;52.502;13.426;2024-03-06T06:09:18;101869.97;;;1.93;100.00
56928;BME280;60850;52.502;13.426;2024-03-06T06:11:45;101877.97;;;1.98;100.00
56928;BME280;60850;52.502;13.426;2024-03-06T06:14:13;101884.69;;;1.87;100.00
56928;BME280;60850;52.502;13.426;2024-03-06T06:16:41;101883.72;;;2.16;100.00
56928;BME280;60850;52.502;13.426;2024-03-06T06:19:08;101875.38;;;2.33;100.00
56928;BME280;60850;52.502;13.426;2024-03-06T06:21:37;101886.81;;;2.69;100.00
56928;BME280;60850;52.502;13.426;2024-03-06T06:24:04;101884.88;;;3.00;100.00
56928;BME280;60850;52.502;13.426;2024-03-06T06:26:31;101888.41;;;3.40;100.00
56928;BME280;60850;52.502;13.426;2024-03-06T06:28:58;101890.75;;;3.70;100.00
56928;BME280;60850;52.502;13.426;2024-03-06T06:31:26;101887.69;;;4.42;100.00
56928;BME280;60850;52.502;13.426;2024-03-06T06:33:53;101881.66;;;5.05;100.00
56928;BME280;60850;52.502;13.426;2024-03-06T06:36:20;101890.06;;;5.40;100.00
56928;BME280;60850;52.502;13.426;2024-03-06T06:38:49;101897.19;;;5.44;100.00
56928;BME280;60850;52.502;13.426;2024-03-06T06:41:17;101889.13;;;6.07;100.00
56928;BME280;60850;52.502;13.426;2024-03-06T06:43:44;101892.69;;;6.09;100.00
56928;BME280;60850;52.502;13.426;2024-03-06T06:46:12;101881.53;;;6.42;100.00
56928;BME280;60850;52.502;13.426;2024-03-06T06:48:39;101880.84;;;6.66;100.00
56928;BME280;60850;52.502;13.426;2024-03-06T06:51:06;101897.00;;;6.00;100.00
56928;BME280;60850;52.502;13.426;2024-03-06T06:53:33;101889.47;;;6.42;100.00
56928;BME280;60850;52.502;13.426;2024-03-06T06:56:02;101890.31;;;6.41;100.00
56928;BME280;60850;52.502;13.426;2024-03-06T06:58:31;101896.00;;;6.85;100.00
56928;BME280;60850;52.502;13.426;2024-03-06T07:00:58;101894.50;;;7.28;100.00
56928;BME280;60850;52.502;13.426;2024-03-06T07:03:26;101898.81;;;7.09;100.00
56928;BME280;60850;52.502;13.426;2024-03-06T07:05:58;101910.69;;;7.88;100.00
56928;BME280;60850;52.502;13.426;2024-03-06T07:08:25;101911.50;;;7.64;100.00
56928;BME280;60850;52.502;13.426;2024-03-06T07:10:52;101916.06;;;8.17;100.00
56928;BME280;60850;52.502;13.426;2024-03-06T07:13:21;101915.03;;;7.66;100.00
56928;BME280;60850;52.502;13.426;2024-03-06T07:15:48;101911.63;;;8.01;100.00
56928;BME280;60850;52.502;13.426;2024-03-06T07:18:15;101905.41;;;8.03;100.00
56928;BME280;60850;52.502;13.426;2024-03-06T07:20:42;101913.25;;;7.66;100.00
56928;BME280;60850;52.502;13.426;2024-03-06T07:23:09;101915.91;;;7.65;100.00
56928;BME280;60850;52.502;13.426;2024-03-06T07:25:37;101920.34;;;7.61;100.00
56928;BME280;60850;52.502;13.426;2024-03-06T07:28:04;101928.31;;;7.75;100.00
56928;BME280;60850;52.502;13.426;2024-03-06T07:30:33;101927.59;;;8.19;100.00
56928;BME280;60850;52.502;13.426;2024-03-06T07:33:00;101932.09;;;8.50;100.00
56928;BME280;60850;52.502;13.426;2024-03-06T07:35:28;101938.97;;;7.78;100.00
56928;BME280;60850;52.502;13.426;2024-03-06T07:37:54;101931.91;;;7.88;100.00
56928;BME280;60850;52.502;13.426;2024-03-06T07:40:22;101931.03;;;7.89;100.00
56928;BME280;60850;52.502;13.426;2024-03-06T07:42:48;101933.56;;;7.55;100.00
56928;BME280;60850;52.502;13.426;2024-03-06T07:45:16;101936.16;;;7.40;100.00
56928;BME280;60850;52.502;13.426;2024-03-06T07:47:44;101939.59;;;7.31;100.00
56928;BME280;60850;52.502;13.426;2024-03-06T07:50:11;101935.41;;;7.68;100.00
56928;BME280;60850;52.502;13.426;2024-03-06T07:52:44;101937.22;;;7.79;100.00
56928;BME280;60850;52.502;13.426;2024-03-06T07:55:12;101944.34;;;7.92;100.00
56928;BME280;60850;52.502;13.426;2024-03-06T07:57:39;101946.13;;;7.91;100.00
56928;BME280;60850;52.502;13.426;2024-03-06T08:00:07;101945.41;;;8.40;100.00
56928;BME280;60850;52.502;13.426;2024-03-06T08:02:40;101953.41;;;8.53;100.00
56928;BME280;60850;52.502;13.426;2024-03-06T08:05:11;101956.03;;;8.52;100.00
56928;BME280;60850;52.502;13.426;2024-03-06T08:07:39;101952.09;;;7.52;100.00
56928;BME280;60850;52.502;13.426;2024-03-06T08:10:08;101952.19;;;7.67;100.00
56928;BME280;60850;52.502;13.426;2024-03-06T08:12:39;101955.03;;;8.16;100.00
56928;BME280;60850;52.502;13.426;2024-03-06T08:15:07;101956.94;;;8.46;100.00
56928;BME280;60850;52.502;13.426;2024-03-06T08:17:36;101954.22;;;9.40;100.00
56928;BME280;60850;52.502;13.426;2024-03-06T08:20:03;101963.97;;;9.50;98.78
56928;BME280;60850;52.502;13.426;2024-03-06T08:22:34;101961.19;;;9.85;98.45
56928;BME280;60850;52.502;13.426;2024-03-06T08:25:05;101962.03;;;9.95;97.69
56928;BME280;60850;52.502;13.426;2024-03-06T08:27:33;101973.50;;;10.15;95.68
56928;BME280;60850;52.502;13.426;2024-03-06T08:30:00;101960.78;;;10.66;92.44
56928;BME280;60850;52.502;13.426;2024-03-06T08:32:30;101960.75;;;11.64;86.41
56928;BME280;60850;52.502;13.426;2024-03-06T08:34:58;101965.91;;;11.79;83.31
56928;BME280;60850;52.502;13.426;2024-03-06T08:37:25;101972.66;;;12.11;80.65
56928;BME280;60850;52.502;13.426;2024-03-06T08:39:54;101975.19;;;12.83;77.33
56928;BME280;60850;52.502;13.426;2024-03-06T08:42:21;101977.28;;;13.66;73.03
56928;BME280;60850;52.502;13.426;2024-03-06T08:44:48;101982.44;;;14.20;69.26
56928;BME280;60850;52.502;13.426;2024-03-06T08:47:15;101982.97;;;13.96;67.75
56928;BME280;60850;52.502;13.426;2024-03-06T08:49:42;101981.06;;;14.81;65.81
56928;BME280;60850;52.502;13.426;2024-03-06T08:52:09;101979.06;;;15.25;62.80
56928;BME280;60850;52.502;13.426;2024-03-06T08:54:37;101986.53;;;14.77;64.46
56928;BME280;60850;52.502;13.426;2024-03-06T08:57:05;101992.44;;;15.27;61.19
56928;BME280;60850;52.502;13.426;2024-03-06T08:59:32;101984.97;;;14.68;59.60
56928;BME280;60850;52.502;13.426;2024-03-06T09:02:12;101992.78;;;15.13;58.67
56928;BME280;60850;52.502;13.426;2024-03-06T09:04:39;101985.91;;;15.71;56.58
56928;BME280;60850;52.502;13.426;2024-03-06T09:07:06;101995.59;;;15.77;56.46
56928;BME280;60850;52.502;13.426;2024-03-06T09:09:33;101997.91;;;14.88;59.35
56928;BME280;60850;52.502;13.426;2024-03-06T09:12:00;101985.13;;;15.68;56.17
56928;BME280;60850;52.502;13.426;2024-03-06T09:14:31;101992.88;;;15.78;55.96
56928;BME280;60850;52.502;13.426;2024-03-06T09:16:58;101998.28;;;15.44;56.06
56928;BME280;60850;52.502;13.426;2024-03-06T09:19:25;102010.31;;;14.55;58.73
56928;BME280;60850;52.502;13.426;2024-03-06T09:21:52;102004.44;;;12.32;67.87
56928;BME280;60850;52.502;13.426;2024-03-06T09:24:20;102011.00;;;11.24;75.78
56928;BME280;60850;52.502;13.426;2024-03-06T09:26:47;102017.03;;;10.23;81.33
56928;BME280;60850;52.502;13.426;2024-03-06T09:29:15;102016.94;;;10.35;85.05
56928;BME280;60850;52.502;13.426;2024-03-06T09:31:43;102020.56;;;10.24;87.02
56928;BME280;60850;52.502;13.426;2024-03-06T09:34:11;102016.88;;;10.52;82.83
56928;BME280;60850;52.502;13.426;2024-03-06T09:36:39;102019.53;;;10.49;83.58
56928;BME280;60850;52.502;13.426;2024-03-06T09:39:09;102017.84;;;10.33;84.66
56928;BME280;60850;52.502;13.426;2024-03-06T09:41:36;102025.06;;;9.93;87.96
56928;BME280;60850;52.502;13.426;2024-03-06T09:44:05;102015.38;;;9.81;86.76
56928;BME280;60850;52.502;13.426;2024-03-06T09:46:33;102019.88;;;9.47;89.67
56928;BME280;60850;52.502;13.426;2024-03-06T09:49:02;102012.75;;;9.61;91.02
56928;BME280;60850;52.502;13.426;2024-03-06T09:51:29;102024.31;;;9.16;92.90
56928;BME280;60850;52.502;13.426;2024-03-06T09:53:56;102027.88;;;9.02;94.27
56928;BME280;60850;52.502;13.426;2024-03-06T09:56:23;102020.78;;;9.04;94.85
56928;BME280;60850;52.502;13.426;2024-03-06T09:58:50;102026.97;;;8.80;97.55
56928;BME280;60850;52.502;13.426;2024-03-06T10:01:19;102031.38;;;8.62;97.71
56928;BME280;60850;52.502;13.426;2024-03-06T10:03:48;102034.66;;;7.99;99.29
56928;BME280;60850;52.502;13.426;2024-03-06T10:06:17;102030.13;;;7.79;100.00
56928;BME280;60850;52.502;13.426;2024-03-06T10:08:46;102032.84;;;7.91;100.00
56928;BME280;60850;52.502;13.426;2024-03-06T10:11:15;102033.63;;;7.75;100.00
56928;BME280;60850;52.502;13.426;2024-03-06T10:13:42;102032.75;;;7.72;100.00
56928;BME280;60850;52.502;13.426;2024-03-06T10:16:09;102037.75;;;7.33;100.00
56928;BME280;60850;52.502;13.426;2024-03-06T10:18:37;102037.47;;;6.96;100.00
56928;BME280;60850;52.502;13.426;2024-03-06T10:21:05;102036.88;;;7.31;100.00
56928;BME280;60850;52.502;13.426;2024-03-06T10:23:34;102042.38;;;7.55;100.00
56928;BME280;60850;52.502;13.426;2024-03-06T10:26:02;102040.69;;;7.71;100.00
56928;BME280;60850;52.502;13.426;2024-03-06T10:28:33;102040.75;;;7.82;100.00
56928;BME280;60850;52.502;13.426;2024-03-06T10:31:04;102042.63;;;7.98;100.00
56928;BME280;60850;52.502;13.426;2024-03-06T10:33:33;102043.59;;;8.21;100.00
56928;BME280;60850;52.502;13.426;2024-03-06T10:36:03;102039.09;;;8.02;100.00
56928;BME280;60850;52.502;13.426;2024-03-06T10:38:36;102034.75;;;8.21;100.00
56928;BME280;60850;52.502;13.426;2024-03-06T10:41:08;102037.53;;;8.47;100.00
56928;BME280;60850;52.502;13.426;2024-03-06T10:43:39;102030.50;;;8.67;99.11
56928;BME280;60850;52.502;13.426;2024-03-06T10:46:10;102031.41;;;8.83;98.85
56928;BME280;60850;52.502;13.426;2024-03-06T10:48:40;102039.38;;;8.75;97.33
56928;BME280;60850;52.502;13.426;2024-03-06T10:51:08;102030.50;;;8.95;95.54
56928;BME280;60850;52.502;13.426;2024-03-06T10:53:39;102030.53;;;8.81;96.28
56928;BME280;60850;52.502;13.426;2024-03-06T10:56:08;102030.56;;;9.10;96.87
56928;BME280;60850;52.502;13.426;2024-03-06T10:58:36;102032.28;;;8.84;97.34
56928;BME280;60850;52.502;13.426;2024-03-06T11:01:04;102028.72;;;8.60;100.00
56928;BME280;60850;52.502;13.426;2024-03-06T11:03:33;102031.28;;;8.36;100.00
56928;BME280;60850;52.502;13.426;2024-03-06T11:06:01;102024.91;;;8.00;100.00
56928;BME280;60850;52.502;13.426;2024-03-06T11:08:29;102030.97;;;7.73;100.00
56928;BME280;60850;52.502;13.426;2024-03-06T11:11:21;102035.09;;;7.33;100.00
56928;BME280;60850;52.502;13.426;2024-03-06T11:13:48;102051.00;;;7.28;100.00
56928;BME280;60850;52.502;13.426;2024-03-06T11:16:15;102043.94;;;7.32;100.00
56928;BME280;60850;52.502;13.426;2024-03-06T11:18:43;102038.03;;;7.74;100.00
56928;BME280;60850;52.502;13.426;2024-03-06T11:21:28;102025.91;;;8.26;100.00
56928;BME280;60850;52.502;13.426;2024-03-06T11:24:15;102035.81;;;8.61;100.00
56928;BME280;60850;52.502;13.426;2024-03-06T11:26:46;102036.69;;;8.54;100.00
56928;BME280;60850;52.502;13.426;2024-03-06T11:29:15;102030.34;;;8.29;100.00
56928;BME280;60850;52.502;13.426;2024-03-06T11:32:03;102031.94;;;7.84;100.00
56928;BME280;60850;52.502;13.426;2024-03-06T11:34:33;102030.13;;;7.79;100.00
56928;BME280;60850;52.502;13.426;2024-03-06T11:37:03;102027.34;;;7.57;100.00
56928;BME280;60850;52.502;13.426;2024-03-06T11:39:35;102031.75;;;7.58;100.00
56928;BME280;60850;52.502;13.426;2024-03-06T11:42:05;102029.69;;;7.14;100.00
56928;BME280;60850;52.502;13.426;2024-03-06T11:44:34;102028.03;;;7.32;100.00
56928;BME280;60850;52.502;13.426;2024-03-06T11:47:03;102030.00;;;7.57;100.00
56928;BME280;60850;52.502;13.426;2024-03-06T11:49:32;102021.28;;;7.80;100.00
56928;BME280;60850;52.502;13.426;2024-03-06T11:52:00;102024.91;;;7.97;100.00
56928;BME280;60850;52.502;13.426;2024-03-06T11:54:29;102020.63;;;8.33;100.00
56928;BME280;60850;52.502;13.426;2024-03-06T11:56:57;102016.19;;;8.30;100.00
56928;BME280;60850;52.502;13.426;2024-03-06T11:59:27;102018.81;;;8.22;100.00
56928;BME280;60850;52.502;13.426;2024-03-06T12:01:55;102024.84;;;7.85;99.85
56928;BME280;60850;52.502;13.426;2024-03-06T12:04:23;102023.13;;;7.90;99.25
56928;BME280;60850;52.502;13.426;2024-03-06T12:06:50;102025.66;;;7.71;100.00
56928;BME280;60850;52.502;13.426;2024-03-06T12:09:18;102028.28;;;7.65;100.00
56928;BME280;60850;52.502;13.426;2024-03-06T12:11:47;102024.09;;;8.12;100.00
56928;BME280;60850;52.502;13.426;2024-03-06T12:14:14;102013.47;;;8.12;99.52
56928;BME280;60850;52.502;13.426;2024-03-06T12:16:54;102024.88;;;7.91;99.92
56928;BME280;60850;52.502;13.426;2024-03-06T12:19:22;102016.94;;;7.97;100.00
56928;BME280;60850;52.502;13.426;2024-03-06T12:21:49;102013.53;;;8.25;97.40
56928;BME280;60850;52.502;13.426;2024-03-06T12:24:17;102016.16;;;8.24;95.18
56928;BME280;60850;52.502;13.426;2024-03-06T12:26:46;102020.69;;;8.43;92.79
56928;BME280;60850;52.502;13.426;2024-03-06T12:29:18;102023.34;;;8.39;92.68
56928;BME280;60850;52.502;13.426;2024-03-06T12:31:47;102001.16;;;8.34;92.78
56928;BME280;60850;52.502;13.426;2024-03-06T12:34:14;102010.06;;;8.39;93.69
56928;BME280;60850;52.502;13.426;2024-03-06T12:36:42;102008.25;;;8.38;92.33
56928;BME280;60850;52.502;13.426;2024-03-06T12:39:10;102009.06;;;8.24;92.26
56928;BME280;60850;52.502;13.426;2024-03-06T12:41:39;102010.84;;;8.22;92.79
56928;BME280;60850;52.502;13.426;2024-03-06T12:44:06;102015.28;;;8.20;93.69